createdAt,value
2023-05-15T00:00:49.748Z,15.14
2023-05-15T00:03:29.524Z,15.16
2023-05-15T00:05:57.783Z,15.18
2023-05-15T00:08:25.818Z,15.19
2023-05-15T00:11:01.431Z,15.18
2023-05-15T00:13:30.405Z,15.18
2023-05-15T00:15:58.329Z,15.18
2023-05-15T00:18:26.250Z,15.19
2023-05-15T00:20:54.412Z,15.20
2023-05-15T00:23:22.565Z,15.21
2023-05-15T00:25:50.663Z,15.22
2023-05-15T00:28:18.529Z,15.23
2023-05-15T00:30:46.442Z,15.23
2023-05-15T00:33:14.339Z,15.24
2023-05-15T00:35:42.210Z,15.26
2023-05-15T00:38:10.070Z,15.25
2023-05-15T00:40:39.265Z,15.25
2023-05-15T00:43:08.640Z,15.25
2023-05-15T00:45:40.858Z,15.26
2023-05-15T00:48:10.747Z,15.26
2023-05-15T00:50:41.640Z,15.25
2023-05-15T00:53:09.909Z,15.26
2023-05-15T00:55:40.633Z,15.26
2023-05-15T00:58:10.949Z,15.27
2023-05-15T01:00:39.145Z,15.27
2023-05-15T01:03:07.206Z,15.27
2023-05-15T01:05:35.421Z,15.28
2023-05-15T01:08:11.945Z,15.28
2023-05-15T01:10:40.385Z,15.27
2023-05-15T01:13:10.138Z,15.28
2023-05-15T01:15:37.890Z,15.27
2023-05-15T01:18:07.308Z,15.28
2023-05-15T01:21:05.802Z,15.28
2023-05-15T01:23:52.205Z,15.27
2023-05-15T01:26:31.955Z,15.27
2023-05-15T01:29:07.389Z,15.27
2023-05-15T01:31:38.646Z,15.29
2023-05-15T01:34:10.136Z,15.31
2023-05-15T01:36:43.264Z,15.34
2023-05-15T01:39:11.431Z,15.36
2023-05-15T01:41:46.805Z,15.39
2023-05-15T01:44:37.834Z,15.41
2023-05-15T01:47:17.929Z,15.43
2023-05-15T01:49:49.263Z,15.44
2023-05-15T01:52:29.272Z,15.45
2023-05-15T01:54:58.650Z,15.47
2023-05-15T01:57:28.430Z,15.47
2023-05-15T01:59:59.478Z,15.47
2023-05-15T02:02:29.236Z,15.47
2023-05-15T02:04:58.582Z,15.48
2023-05-15T02:07:27.566Z,15.48
2023-05-15T02:09:56.543Z,15.48
2023-05-15T02:12:24.720Z,15.49
2023-05-15T02:14:53.393Z,15.48
2023-05-15T02:17:22.896Z,15.48
2023-05-15T02:19:51.163Z,15.46
2023-05-15T02:22:19.064Z,15.46
2023-05-15T02:24:46.873Z,15.45
2023-05-15T02:27:24.556Z,15.46
2023-05-15T02:29:58.523Z,15.45
2023-05-15T02:33:14.853Z,15.46
2023-05-15T02:35:53.107Z,15.46
2023-05-15T02:38:28.360Z,15.47
2023-05-15T02:40:58.078Z,15.48
2023-05-15T02:43:26.834Z,15.48
2023-05-15T02:45:57.171Z,15.49
2023-05-15T02:48:25.868Z,15.49
2023-05-15T02:50:54.318Z,15.49
2023-05-15T02:53:22.271Z,15.50
2023-05-15T02:55:50.251Z,15.49
2023-05-15T02:58:18.455Z,15.48
2023-05-15T03:00:46.387Z,15.47
2023-05-15T03:03:14.275Z,15.46
2023-05-15T03:05:42.260Z,15.45
2023-05-15T03:08:10.171Z,15.45
2023-05-15T03:10:37.942Z,15.44
2023-05-15T03:13:05.874Z,15.43
2023-05-15T03:15:33.734Z,15.42
2023-05-15T03:18:01.744Z,15.41
2023-05-15T03:20:29.573Z,15.40
2023-05-15T03:22:57.573Z,15.39
2023-05-15T03:25:26.112Z,15.38
2023-05-15T03:27:54.530Z,15.37
2023-05-15T03:30:22.557Z,15.36
2023-05-15T03:32:50.609Z,15.34
2023-05-15T03:35:18.801Z,15.33
2023-05-15T03:37:46.819Z,15.33
2023-05-15T03:40:14.720Z,15.32
2023-05-15T03:42:42.487Z,15.30
2023-05-15T03:45:10.353Z,15.30
2023-05-15T03:47:38.596Z,15.28
2023-05-15T03:50:06.811Z,15.26
2023-05-15T03:52:34.868Z,15.24
2023-05-15T03:55:02.975Z,15.22
2023-05-15T03:57:32.188Z,15.20
2023-05-15T04:00:01.369Z,15.18
2023-05-15T04:02:29.637Z,15.17
2023-05-15T04:04:57.893Z,15.18
2023-05-15T04:07:25.899Z,15.18
2023-05-15T04:09:53.804Z,15.19
2023-05-15T04:12:22.561Z,15.17
2023-05-15T04:14:50.489Z,15.15
2023-05-15T04:17:18.516Z,15.15
2023-05-15T04:19:48.064Z,15.14
2023-05-15T04:22:16.068Z,15.13
2023-05-15T04:24:44.068Z,15.11
2023-05-15T04:27:14.484Z,15.10
2023-05-15T04:29:42.320Z,15.09
2023-05-15T04:32:10.381Z,15.10
2023-05-15T04:34:38.528Z,15.12
2023-05-15T04:37:07.126Z,15.13
2023-05-15T04:39:35.136Z,15.15
2023-05-15T04:42:03.476Z,15.18
2023-05-15T04:44:32.107Z,15.20
2023-05-15T04:47:00.060Z,15.21
2023-05-15T04:49:27.946Z,15.23
2023-05-15T04:51:55.851Z,15.25
2023-05-15T04:54:23.668Z,15.26
2023-05-15T04:56:51.484Z,15.27
2023-05-15T04:59:19.279Z,15.30
2023-05-15T05:01:47.276Z,15.31
2023-05-15T05:04:19.710Z,15.31
2023-05-15T05:06:47.491Z,15.31
2023-05-15T05:09:15.508Z,15.33
2023-05-15T05:11:46.133Z,15.34
2023-05-15T05:14:14.817Z,15.37
2023-05-15T05:16:45.643Z,15.39
2023-05-15T05:19:13.762Z,15.43
2023-05-15T05:21:41.855Z,15.46
2023-05-15T05:24:09.867Z,15.50
2023-05-15T05:26:37.907Z,15.55
2023-05-15T05:29:05.803Z,15.60
2023-05-15T05:31:33.799Z,15.66
2023-05-15T05:34:01.717Z,15.73
2023-05-15T05:36:29.568Z,15.80
2023-05-15T05:38:57.328Z,15.89
2023-05-15T05:41:25.988Z,15.98
2023-05-15T05:43:53.805Z,16.07
2023-05-15T05:46:21.689Z,16.16
2023-05-15T05:48:49.469Z,16.24
2023-05-15T05:51:17.208Z,16.30
2023-05-15T05:53:45.100Z,16.35
2023-05-15T05:56:12.976Z,16.40
2023-05-15T05:58:40.960Z,16.46
2023-05-15T06:01:09.160Z,16.56
2023-05-15T06:03:38.790Z,16.65
2023-05-15T06:06:07.723Z,16.75
2023-05-15T06:08:35.665Z,16.83
2023-05-15T06:11:04.136Z,16.88
2023-05-15T06:13:32.456Z,16.93
2023-05-15T06:16:00.315Z,16.96
2023-05-15T06:18:28.163Z,17.00
2023-05-15T06:20:56.183Z,17.05
2023-05-15T06:23:24.522Z,17.10
2023-05-15T06:25:52.557Z,17.11
2023-05-15T06:28:20.567Z,17.14
2023-05-15T06:30:48.592Z,17.18
2023-05-15T06:33:16.586Z,17.20
2023-05-15T06:35:44.628Z,17.21
2023-05-15T06:38:12.511Z,17.15
2023-05-15T06:40:40.580Z,17.05
2023-05-15T06:43:08.701Z,16.94
2023-05-15T06:45:36.771Z,16.80
2023-05-15T06:48:04.737Z,16.64
2023-05-15T06:50:32.605Z,16.51
2023-05-15T06:53:01.294Z,16.42
2023-05-15T06:55:29.222Z,16.39
2023-05-15T06:57:57.226Z,16.38
2023-05-15T07:00:25.400Z,16.39
2023-05-15T07:02:53.257Z,16.38
2023-05-15T07:05:22.092Z,16.35
2023-05-15T07:07:50.079Z,16.37
2023-05-15T07:10:17.908Z,16.39
2023-05-15T07:12:46.081Z,16.42
2023-05-15T07:15:14.021Z,16.43
2023-05-15T07:17:41.970Z,16.42
2023-05-15T07:20:10.642Z,16.43
2023-05-15T07:22:51.984Z,16.42
2023-05-15T07:25:25.784Z,16.41
2023-05-15T07:27:54.077Z,16.40
2023-05-15T07:30:23.006Z,16.40
2023-05-15T07:32:51.237Z,16.37
2023-05-15T07:35:19.639Z,16.30
2023-05-15T07:37:47.773Z,16.24
2023-05-15T07:40:15.817Z,16.24
2023-05-15T07:42:45.073Z,16.20
2023-05-15T07:45:12.965Z,16.20
2023-05-15T07:47:48.102Z,16.20
2023-05-15T07:50:17.800Z,16.20
2023-05-15T07:52:46.113Z,16.19
2023-05-15T07:55:14.196Z,16.20
2023-05-15T07:57:42.472Z,16.22
2023-05-15T08:00:13.179Z,16.25
2023-05-15T08:02:46.339Z,16.30
2023-05-15T08:05:14.617Z,16.37
2023-05-15T08:07:42.703Z,16.45
2023-05-15T08:10:10.885Z,16.56
2023-05-15T08:12:38.900Z,16.67
2023-05-15T08:15:07.922Z,16.76
2023-05-15T08:17:35.901Z,16.84
2023-05-15T08:20:05.067Z,16.89
2023-05-15T08:22:32.952Z,16.89
2023-05-15T08:25:03.842Z,16.95
2023-05-15T08:27:32.474Z,16.99
2023-05-15T08:30:00.547Z,17.03
2023-05-15T08:32:28.516Z,17.11
2023-05-15T08:34:56.609Z,17.17
2023-05-15T08:37:24.480Z,17.23
2023-05-15T08:39:52.438Z,17.21
2023-05-15T08:42:49.531Z,17.24
2023-05-15T08:45:19.043Z,17.32
2023-05-15T08:47:47.570Z,17.37
2023-05-15T08:50:17.548Z,17.44
2023-05-15T08:52:46.888Z,17.49
2023-05-15T08:55:16.378Z,17.51
2023-05-15T08:57:45.226Z,17.55
2023-05-15T09:00:15.017Z,17.61
2023-05-15T09:02:43.268Z,17.64
2023-05-15T09:05:12.092Z,17.62
2023-05-15T09:07:44.942Z,17.57
2023-05-15T09:10:14.239Z,17.52
2023-05-15T09:12:47.046Z,17.51
2023-05-15T09:15:18.042Z,17.46
2023-05-15T09:17:46.283Z,17.44
2023-05-15T09:20:27.958Z,17.44
2023-05-15T09:22:57.075Z,17.40
2023-05-15T09:25:38.923Z,17.40
2023-05-15T09:28:09.589Z,17.39
2023-05-15T09:30:39.043Z,17.35
2023-05-15T09:33:07.251Z,17.35
2023-05-15T09:35:40.709Z,17.35
2023-05-15T09:38:11.669Z,17.32
2023-05-15T09:40:41.116Z,17.32
2023-05-15T09:43:11.979Z,17.29
2023-05-15T09:45:39.980Z,17.28
2023-05-15T09:48:08.686Z,17.23
2023-05-15T09:50:38.925Z,17.21
2023-05-15T09:53:06.743Z,17.21
2023-05-15T09:55:36.338Z,17.20
2023-05-15T09:58:09.943Z,17.21
2023-05-15T10:00:48.839Z,17.17
2023-05-15T10:03:21.334Z,17.12
2023-05-15T10:05:49.308Z,17.07
2023-05-15T10:08:27.764Z,17.04
2023-05-15T10:11:00.672Z,16.99
2023-05-15T10:13:31.551Z,16.90
2023-05-15T10:16:02.233Z,16.82
2023-05-15T10:18:31.766Z,16.74
2023-05-15T10:21:04.195Z,16.70
2023-05-15T10:23:35.826Z,16.65
2023-05-15T10:26:11.256Z,16.58
2023-05-15T10:28:39.898Z,16.54
2023-05-15T10:31:09.712Z,16.50
2023-05-15T10:33:39.142Z,16.47
2023-05-15T10:36:08.657Z,16.46
2023-05-15T10:38:37.661Z,16.44
2023-05-15T10:41:16.490Z,16.41
2023-05-15T10:43:46.974Z,16.39
2023-05-15T10:46:16.297Z,16.40
2023-05-15T10:48:44.368Z,16.40
2023-05-15T10:51:25.193Z,16.41
2023-05-15T10:53:53.861Z,16.38
2023-05-15T10:56:26.925Z,16.30
2023-05-15T10:58:55.779Z,16.24
2023-05-15T11:01:32.256Z,16.16
2023-05-15T11:04:17.964Z,16.08
2023-05-15T11:06:50.655Z,16.04
2023-05-15T11:09:28.114Z,16.02
2023-05-15T11:12:00.435Z,15.99
2023-05-15T11:14:52.062Z,15.99
2023-05-15T11:17:20.149Z,15.97
2023-05-15T11:19:51.471Z,15.95
2023-05-15T11:22:27.194Z,15.95
2023-05-15T11:25:16.668Z,15.92
2023-05-15T11:27:46.278Z,15.91
2023-05-15T11:30:22.245Z,15.91
2023-05-15T11:32:58.522Z,15.94
2023-05-15T11:35:35.498Z,15.97
2023-05-15T11:38:05.151Z,15.98
2023-05-15T11:40:44.668Z,15.95
2023-05-15T11:43:32.347Z,15.93
2023-05-15T11:46:05.697Z,15.89
2023-05-15T11:48:34.559Z,15.83
2023-05-15T11:51:04.305Z,15.75
2023-05-15T11:53:33.424Z,15.72
2023-05-15T11:56:01.356Z,15.68
2023-05-15T11:58:29.377Z,15.61
2023-05-15T12:00:57.905Z,15.54
2023-05-15T12:03:32.241Z,15.47
2023-05-15T12:06:02.211Z,15.48
2023-05-15T12:08:35.156Z,15.47
2023-05-15T12:11:04.327Z,15.45
2023-05-15T12:13:33.266Z,15.41
2023-05-15T12:16:05.179Z,15.42
2023-05-15T12:18:36.614Z,15.43
2023-05-15T12:21:06.086Z,15.40
2023-05-15T12:23:34.194Z,15.36
2023-05-15T12:26:03.832Z,15.31
2023-05-15T12:28:35.199Z,15.32
2023-05-15T12:31:04.141Z,15.28
2023-05-15T12:33:32.228Z,15.25
2023-05-15T12:36:01.844Z,15.24
2023-05-15T12:38:31.117Z,15.25
2023-05-15T12:40:59.337Z,15.27
2023-05-15T12:43:27.408Z,15.29
2023-05-15T12:45:56.504Z,15.32
2023-05-15T12:48:30.737Z,15.34
2023-05-15T12:51:06.520Z,15.35
2023-05-15T12:53:35.407Z,15.34
2023-05-15T12:56:04.891Z,15.31
2023-05-15T12:58:33.744Z,15.27
2023-05-15T13:01:04.778Z,15.21
2023-05-15T13:03:33.376Z,15.16
2023-05-15T13:06:07.236Z,15.20
2023-05-15T13:08:42.044Z,15.24
2023-05-15T13:11:14.518Z,15.24
2023-05-15T13:13:45.032Z,15.24
2023-05-15T13:16:19.977Z,15.26
2023-05-15T13:18:49.152Z,15.29
2023-05-15T13:21:17.880Z,15.34
2023-05-15T13:23:45.838Z,15.34
2023-05-15T13:26:13.804Z,15.36
2023-05-15T13:28:41.726Z,15.36
2023-05-15T13:31:09.982Z,15.38
2023-05-15T13:33:37.989Z,15.40
2023-05-15T13:36:06.316Z,15.39
2023-05-15T13:38:34.164Z,15.41
2023-05-15T13:41:02.090Z,15.41
2023-05-15T13:43:30.144Z,15.42
2023-05-15T13:45:58.140Z,15.40
2023-05-15T13:48:26.078Z,15.40
2023-05-15T13:50:53.981Z,15.39
2023-05-15T13:53:24.176Z,15.40
2023-05-15T13:55:52.033Z,15.40
2023-05-15T13:58:20.106Z,15.40
2023-05-15T14:00:51.317Z,15.43
2023-05-15T14:03:21.116Z,15.43
2023-05-15T14:05:49.212Z,15.42
2023-05-15T14:08:17.464Z,15.45
2023-05-15T14:10:45.322Z,15.47
2023-05-15T14:13:13.286Z,15.47
2023-05-15T14:15:41.084Z,15.49
2023-05-15T14:18:09.217Z,15.54
2023-05-15T14:20:37.044Z,15.55
2023-05-15T14:23:04.970Z,15.58
2023-05-15T14:25:32.778Z,15.60
2023-05-15T14:28:00.614Z,15.60
2023-05-15T14:30:28.425Z,15.61
2023-05-15T14:32:56.400Z,15.62
2023-05-15T14:35:24.197Z,15.63
2023-05-15T14:37:52.188Z,15.64
2023-05-15T14:40:20.047Z,15.64
2023-05-15T14:42:47.819Z,15.64
2023-05-15T14:45:15.741Z,15.64
2023-05-15T14:47:43.789Z,15.65
2023-05-15T14:50:11.722Z,15.65
2023-05-15T14:52:39.730Z,15.64
2023-05-15T14:55:09.794Z,15.64
2023-05-15T14:57:38.654Z,15.65
2023-05-15T15:00:07.267Z,15.64
2023-05-15T15:02:35.687Z,15.64
2023-05-15T15:05:04.687Z,15.66
2023-05-15T15:07:58.575Z,15.64
2023-05-15T15:10:27.550Z,15.59
2023-05-15T15:12:56.101Z,15.59
2023-05-15T15:15:24.704Z,15.57
2023-05-15T15:17:53.184Z,15.57
2023-05-15T15:20:21.642Z,15.57
2023-05-15T15:22:49.498Z,15.51
2023-05-15T15:25:17.661Z,15.48
2023-05-15T15:27:46.427Z,15.48
2023-05-15T15:30:15.824Z,15.46
2023-05-15T15:32:45.473Z,15.46
2023-05-15T15:35:13.558Z,15.42
2023-05-15T15:37:41.444Z,15.39
2023-05-15T15:40:09.830Z,15.36
2023-05-15T15:42:38.079Z,15.35
2023-05-15T15:45:07.288Z,15.34
2023-05-15T15:47:35.703Z,15.31
2023-05-15T15:50:03.823Z,15.28
2023-05-15T15:52:31.589Z,15.27
2023-05-15T15:54:59.426Z,15.24
2023-05-15T15:57:28.080Z,15.21
2023-05-15T15:59:56.057Z,15.19
2023-05-15T16:02:24.111Z,15.18
2023-05-15T16:04:51.956Z,15.19
2023-05-15T16:07:20.254Z,15.17
2023-05-15T16:09:56.854Z,15.17
2023-05-15T16:12:36.072Z,15.15
2023-05-15T16:15:17.452Z,15.14
2023-05-15T16:17:54.131Z,15.12
2023-05-15T16:20:23.836Z,15.10
2023-05-15T16:22:52.128Z,15.09
2023-05-15T16:25:20.146Z,15.05
2023-05-15T16:27:48.040Z,15.03
2023-05-15T16:30:15.927Z,15.02
2023-05-15T16:32:45.024Z,14.99
2023-05-15T16:35:13.214Z,14.98
2023-05-15T16:37:41.405Z,14.96
2023-05-15T16:40:09.951Z,14.95
2023-05-15T16:42:38.226Z,14.94
2023-05-15T16:45:07.264Z,14.93
2023-05-15T16:47:38.361Z,14.92
2023-05-15T16:50:07.297Z,14.89
2023-05-15T16:52:35.940Z,14.89
2023-05-15T16:55:04.126Z,14.87
2023-05-15T16:57:32.037Z,14.85
2023-05-15T16:59:59.890Z,14.84
2023-05-15T17:02:27.743Z,14.87
2023-05-15T17:04:55.929Z,14.83
2023-05-15T17:07:23.891Z,14.82
2023-05-15T17:09:52.296Z,14.80
2023-05-15T17:12:20.584Z,14.79
2023-05-15T17:14:48.573Z,14.79
2023-05-15T17:17:16.754Z,14.77
2023-05-15T17:19:45.363Z,14.72
2023-05-15T17:22:13.296Z,14.70
2023-05-15T17:24:50.719Z,14.70
2023-05-15T17:27:20.514Z,14.70
2023-05-15T17:29:48.791Z,14.71
2023-05-15T17:32:17.824Z,14.69
2023-05-15T17:34:46.933Z,14.67
2023-05-15T17:37:14.874Z,14.68
2023-05-15T17:39:43.170Z,14.67
2023-05-15T17:42:11.170Z,14.66
2023-05-15T17:44:39.295Z,14.63
2023-05-15T17:47:08.554Z,14.65
2023-05-15T17:49:37.818Z,14.64
2023-05-15T17:52:08.006Z,14.63
2023-05-15T17:54:35.970Z,14.64
2023-05-15T17:57:04.019Z,14.64
2023-05-15T17:59:31.956Z,14.61
2023-05-15T18:02:00.671Z,14.61
2023-05-15T18:04:28.714Z,14.61
2023-05-15T18:06:56.811Z,14.60
2023-05-15T18:09:24.867Z,14.57
2023-05-15T18:11:55.796Z,14.57
2023-05-15T18:14:23.642Z,14.57
2023-05-15T18:16:51.640Z,14.57
2023-05-15T18:19:19.943Z,14.56
2023-05-15T18:21:48.238Z,14.56
2023-05-15T18:24:16.148Z,14.57
2023-05-15T18:26:44.371Z,14.58
2023-05-15T18:29:14.156Z,14.57
2023-05-15T18:31:42.234Z,14.57
2023-05-15T18:34:10.057Z,14.56
2023-05-15T18:36:37.971Z,14.58
2023-05-15T18:39:06.274Z,14.59
2023-05-15T18:41:34.078Z,14.58
2023-05-15T18:44:01.886Z,14.60
2023-05-15T18:46:31.790Z,14.60
2023-05-15T18:49:00.240Z,14.59
2023-05-15T18:51:28.231Z,14.57
2023-05-15T18:53:56.168Z,14.57
2023-05-15T18:56:25.081Z,14.57
2023-05-15T18:58:54.186Z,14.58
2023-05-15T19:01:22.311Z,14.58
2023-05-15T19:03:50.437Z,14.58
2023-05-15T19:06:20.187Z,14.58
2023-05-15T19:08:48.668Z,14.56
2023-05-15T19:11:17.373Z,14.56
2023-05-15T19:13:45.251Z,14.56
2023-05-15T19:16:13.243Z,14.58
2023-05-15T19:18:41.191Z,14.58
2023-05-15T19:21:09.198Z,14.58
2023-05-15T19:23:37.140Z,14.59
2023-05-15T19:26:05.154Z,14.59
2023-05-15T19:28:33.206Z,14.59
2023-05-15T19:31:01.134Z,14.58
2023-05-15T19:33:29.499Z,14.58
2023-05-15T19:35:57.470Z,14.58
2023-05-15T19:38:25.610Z,14.56
2023-05-15T19:40:53.716Z,14.55
2023-05-15T19:43:21.690Z,14.53
2023-05-15T19:45:49.539Z,14.52
2023-05-15T19:48:17.424Z,14.50
2023-05-15T19:50:46.245Z,14.48
2023-05-15T19:53:14.229Z,14.47
2023-05-15T19:55:42.223Z,14.47
2023-05-15T19:58:10.118Z,14.46
2023-05-15T20:00:37.983Z,14.47
2023-05-15T20:03:06.102Z,14.48
2023-05-15T20:05:34.220Z,14.48
2023-05-15T20:08:02.033Z,14.48
2023-05-15T20:10:29.895Z,14.49
2023-05-15T20:12:57.840Z,14.48
2023-05-15T20:15:32.646Z,14.46
2023-05-15T20:18:03.948Z,14.47
2023-05-15T20:20:32.492Z,14.48
2023-05-15T20:23:00.192Z,14.48
2023-05-15T20:25:29.800Z,14.49
2023-05-15T20:27:58.695Z,14.50
2023-05-15T20:30:28.910Z,14.51
2023-05-15T20:32:57.007Z,14.50
2023-05-15T20:35:25.509Z,14.50
2023-05-15T20:37:57.509Z,14.50
2023-05-15T20:40:26.395Z,14.49
2023-05-15T20:42:56.887Z,14.48
2023-05-15T20:45:27.049Z,14.48
2023-05-15T20:47:55.296Z,14.48
2023-05-15T20:50:26.094Z,14.47
2023-05-15T20:52:55.030Z,14.46
2023-05-15T20:55:23.059Z,14.47
2023-05-15T20:57:50.881Z,14.47
2023-05-15T21:00:18.672Z,14.46
2023-05-15T21:02:55.487Z,14.47
2023-05-15T21:05:41.482Z,14.46
2023-05-15T21:08:09.674Z,14.45
2023-05-15T21:10:38.533Z,14.45
2023-05-15T21:13:06.266Z,14.45
2023-05-15T21:15:34.235Z,14.44
2023-05-15T21:18:02.242Z,14.42
2023-05-15T21:20:30.144Z,14.42
2023-05-15T21:22:57.992Z,14.43
2023-05-15T21:25:25.993Z,14.42
2023-05-15T21:27:57.724Z,14.42
2023-05-15T21:30:25.635Z,14.41
2023-05-15T21:32:53.700Z,14.41
2023-05-15T21:35:21.672Z,14.41
2023-05-15T21:37:49.494Z,14.41
2023-05-15T21:40:18.504Z,14.42
2023-05-15T21:42:46.382Z,14.43
2023-05-15T21:45:14.392Z,14.43
2023-05-15T21:47:42.236Z,14.43
2023-05-15T21:50:10.488Z,14.45
2023-05-15T21:52:38.399Z,14.46
2023-05-15T21:55:07.266Z,14.49
2023-05-15T21:57:35.247Z,14.47
2023-05-15T22:00:06.911Z,14.47
2023-05-15T22:02:35.170Z,14.46
2023-05-15T22:05:03.936Z,14.45
2023-05-15T22:07:31.807Z,14.44
2023-05-15T22:09:59.672Z,14.45
2023-05-15T22:12:45.862Z,14.46
2023-05-15T22:15:15.053Z,14.46
2023-05-15T22:17:43.073Z,14.46
2023-05-15T22:20:13.328Z,14.44
2023-05-15T22:22:42.481Z,14.45
2023-05-15T22:25:10.471Z,14.44
2023-05-15T22:27:38.472Z,14.45
2023-05-15T22:30:07.293Z,14.44
2023-05-15T22:32:35.251Z,14.44
2023-05-15T22:35:03.654Z,14.45
2023-05-15T22:37:31.613Z,14.45
2023-05-15T22:39:59.992Z,14.46
2023-05-15T22:42:28.200Z,14.47
2023-05-15T22:44:57.828Z,14.49
2023-05-15T22:47:28.326Z,14.48
2023-05-15T22:49:56.914Z,14.46
2023-05-15T22:52:25.465Z,14.47
2023-05-15T22:55:17.295Z,14.47
2023-05-15T22:57:45.113Z,14.45
2023-05-15T23:00:13.771Z,14.46
2023-05-15T23:02:43.468Z,14.47
2023-05-15T23:05:12.670Z,14.47
2023-05-15T23:07:46.586Z,14.47
2023-05-15T23:10:15.978Z,14.46
2023-05-15T23:12:43.830Z,14.48
2023-05-15T23:15:11.997Z,14.47
2023-05-15T23:17:40.386Z,14.47
2023-05-15T23:20:10.624Z,14.48
2023-05-15T23:22:39.266Z,14.47
2023-05-15T23:25:07.581Z,14.47
2023-05-15T23:27:35.608Z,14.48
2023-05-15T23:30:05.090Z,14.49
2023-05-15T23:32:33.450Z,14.48
2023-05-15T23:35:01.393Z,14.47
2023-05-15T23:37:29.275Z,14.47
2023-05-15T23:39:57.243Z,14.48
2023-05-15T23:42:25.311Z,14.48
2023-05-15T23:44:53.113Z,14.49
2023-05-15T23:47:21.472Z,14.50
2023-05-15T23:49:49.237Z,14.50
2023-05-15T23:52:17.193Z,14.48
2023-05-15T23:54:45.153Z,14.49
2023-05-15T23:57:13.088Z,14.48
2023-05-15T23:59:41.122Z,14.48
